Time;durP1;ratioP1;P1;durP2;ratioP2;P2;SDS_P1;SDS_P2;PMS_P1;PMS_P2;Temp;Humidity;BMP_temperature;BMP_pressure;BME280_temperature;BME280_humidity;BME280_pressure;Samples;Min_cycle;Max_cycle;Signal;HPM_P1;HPM_P2
2023/02/28 00:00:58;;;;;;;6.03;3.55;;;;;;;2.06;35.86;102597.75;5040923;28;20056;-77
2023/02/28 00:03:25;;;;;;;5.78;3.30;;;;;;;2.04;35.99;102588.81;5043068;28;20041;-77
2023/02/28 00:05:53;;;;;;;4.72;3.20;;;;;;;2.02;35.81;102592.47;5052927;28;20041;-76
2023/02/28 00:08:23;;;;;;;6.07;3.35;;;;;;;2.00;35.97;102587.09;5045110;28;20106;-76
2023/02/28 00:10:50;;;;;;;6.88;3.33;;;;;;;1.98;35.89;102582.69;5055115;28;20055;-77
2023/02/28 00:13:18;;;;;;;5.15;3.05;;;;;;;1.95;36.25;102589.03;5043753;28;20140;-76
2023/02/28 00:15:46;;;;;;;5.07;3.38;;;;;;;1.94;36.21;102587.25;5036551;28;20037;-76
2023/02/28 00:18:14;;;;;;;5.40;3.10;;;;;;;1.91;36.27;102587.34;5044104;28;20200;-76
2023/02/28 00:20:42;;;;;;;5.13;3.25;;;;;;;1.88;36.23;102585.59;5049597;28;20052;-76
2023/02/28 00:23:10;;;;;;;5.50;2.92;;;;;;;1.88;36.16;102590.09;5053112;28;20068;-76
2023/02/28 00:25:39;;;;;;;4.97;3.03;;;;;;;1.87;36.46;102591.91;5043696;28;20038;-76
2023/02/28 00:28:07;;;;;;;5.40;3.17;;;;;;;1.86;36.46;102589.25;5049757;28;20079;-76
2023/02/28 00:30:35;;;;;;;4.85;3.00;;;;;;;1.84;36.41;102585.69;5040075;28;20041;-76
2023/02/28 00:33:05;;;;;;;4.75;2.90;;;;;;;1.83;36.28;102587.53;5032923;28;20079;-76
2023/02/28 00:35:32;;;;;;;4.82;3.00;;;;;;;1.82;36.48;102591.16;5049867;28;20036;-76
2023/02/28 00:38:00;;;;;;;4.75;2.78;;;;;;;1.81;36.56;102594.75;5032288;28;20049;-76
2023/02/28 00:40:28;;;;;;;6.45;3.08;;;;;;;1.79;36.48;102584.91;5040350;28;20045;-76
2023/02/28 00:42:57;;;;;;;5.20;2.83;;;;;;;1.80;36.61;102598.38;5056107;28;20508;-76
2023/02/28 00:45:25;;;;;;;4.90;3.08;;;;;;;1.78;36.83;102592.13;5040001;28;20408;-76
2023/02/28 00:47:53;;;;;;;5.40;2.95;;;;;;;1.78;36.43;102597.53;5034979;28;20574;-76
2023/02/28 00:50:21;;;;;;;4.88;2.67;;;;;;;1.77;36.55;102590.34;5052015;28;20099;-76
2023/02/28 00:52:49;;;;;;;5.25;3.08;;;;;;;1.77;36.81;102590.34;5036535;28;20097;-76
2023/02/28 00:55:18;;;;;;;5.47;3.72;;;;;;;1.77;36.67;102581.34;5036128;28;20040;-76
2023/02/28 00:57:46;;;;;;;6.35;3.30;;;;;;;1.75;36.67;102585.94;5040363;28;20564;-76
2023/02/28 01:00:16;;;;;;;4.65;3.10;;;;;;;1.75;37.00;102585.94;5048821;28;20051;-76
2023/02/28 01:02:44;;;;;;;4.90;3.13;;;;;;;1.73;36.74;102587.78;5040469;28;20523;-76
2023/02/28 01:05:12;;;;;;;5.97;3.22;;;;;;;1.73;36.85;102590.47;5030958;28;20563;-76
2023/02/28 01:07:39;;;;;;;5.03;2.90;;;;;;;1.72;37.00;102586.00;5038499;28;20512;-76
2023/02/28 01:10:09;;;;;;;5.47;3.30;;;;;;;1.72;36.73;102588.69;5029041;28;20116;-76
2023/02/28 01:12:37;;;;;;;4.40;3.08;;;;;;;1.69;37.00;102584.25;5034472;28;20055;-77
2023/02/28 01:15:05;;;;;;;5.30;3.50;;;;;;;1.67;37.05;102588.78;5049758;28;20042;-76
2023/02/28 01:17:35;;;;;;;5.15;3.35;;;;;;;1.68;36.86;102586.97;5049801;28;20049;-77
2023/02/28 01:20:03;;;;;;;5.72;3.28;;;;;;;1.67;37.15;102590.63;5044266;28;20040;-77
2023/02/28 01:22:31;;;;;;;5.60;3.13;;;;;;;1.65;36.90;102595.16;5059831;28;20132;-77
2023/02/28 01:24:59;;;;;;;5.65;3.17;;;;;;;1.64;36.84;102591.56;4993379;28;20426;-76
2023/02/28 01:27:28;;;;;;;6.13;3.15;;;;;;;1.63;37.13;102589.78;5025193;28;20085;-77
2023/02/28 01:29:56;;;;;;;5.97;3.30;;;;;;;1.63;37.12;102588.91;5048622;28;20127;-77
2023/02/28 01:32:23;;;;;;;4.68;3.40;;;;;;;1.62;36.91;102588.00;5043851;28;20041;-77
2023/02/28 01:34:52;;;;;;;5.32;3.22;;;;;;;1.63;37.23;102587.09;5014050;28;20106;-76
2023/02/28 01:37:20;;;;;;;6.45;3.60;;;;;;;1.60;37.08;102594.34;5059433;28;20049;-77
2023/02/28 01:39:48;;;;;;;6.97;3.53;;;;;;;1.59;36.87;102588.06;5027969;28;20570;-77
2023/02/28 01:42:16;;;;;;;7.25;3.80;;;;;;;1.54;37.17;102584.59;5032897;28;20057;-76
2023/02/28 01:45:04;;;;;;;6.50;4.00;;;;;;;1.52;38.35;102586.44;5045692;28;20037;-76
2023/02/28 01:47:35;;;;;;;6.65;3.83;;;;;;;1.51;37.25;102587.34;5046404;28;20097;-76
2023/02/28 01:50:08;;;;;;;6.13;3.63;;;;;;;1.47;37.73;102583.84;5051055;28;20045;-76
2023/02/28 01:52:36;;;;;;;5.68;3.70;;;;;;;1.41;37.63;102583.09;5031480;28;20045;-76
2023/02/28 01:55:08;;;;;;;7.55;3.90;;;;;;;1.41;37.64;102583.09;5030443;28;20416;-76
2023/02/28 01:57:41;;;;;;;6.72;4.13;;;;;;;1.39;37.48;102580.44;5043813;28;20049;-75
2023/02/28 02:00:14;;;;;;;6.43;3.42;;;;;;;1.36;37.58;102583.19;5025934;28;20069;-76
2023/02/28 02:02:50;;;;;;;5.45;3.28;;;;;;;1.36;37.54;102585.88;5045260;28;20090;-76
2023/02/28 02:05:21;;;;;;;4.82;2.97;;;;;;;1.34;37.82;102578.78;5032929;28;20040;-76
2023/02/28 02:07:53;;;;;;;6.00;3.72;;;;;;;1.32;37.82;102569.81;5050762;28;20049;-76
2023/02/28 02:10:25;;;;;;;5.57;3.50;;;;;;;1.31;37.54;102573.44;5048096;28;20096;-76
2023/02/28 02:13:14;;;;;;;5.32;3.15;;;;;;;1.30;37.99;102575.25;5045436;28;20065;-76
2023/02/28 02:15:49;;;;;;;6.07;3.33;;;;;;;1.29;37.78;102573.47;5027016;28;20064;-76
2023/02/28 02:18:28;;;;;;;5.35;3.17;;;;;;;1.31;37.91;102568.94;5039350;28;20052;-76
2023/02/28 02:21:41;;;;;;;5.75;3.53;;;;;;;1.29;38.31;102567.16;5038770;28;20572;-76
2023/02/28 02:24:35;;;;;;;5.47;3.27;;;;;;;1.27;38.35;102569.00;5032817;28;20538;-76
2023/02/28 02:27:17;;;;;;;5.53;3.15;;;;;;;1.28;38.17;102555.50;5058114;28;20107;-76
2023/02/28 02:30:21;;;;;;;5.10;3.10;;;;;;;1.28;38.40;102562.69;5030152;28;20065;-76
2023/02/28 02:33:17;;;;;;;4.65;2.58;;;;;;;1.28;38.39;102555.50;5024674;28;20045;-76
2023/02/28 02:35:55;;;;;;;4.95;3.10;;;;;;;1.29;38.49;102557.28;5017132;28;20052;-76
2023/02/28 02:38:34;;;;;;;3.92;2.70;;;;;;;1.30;38.36;102563.56;5057370;28;20063;-76
2023/02/28 02:41:10;;;;;;;5.75;3.45;;;;;;;1.30;38.09;102561.75;5044725;28;20064;-76
2023/02/28 02:43:46;;;;;;;6.28;3.30;;;;;;;1.30;38.16;102552.78;5021490;28;20041;-76
2023/02/28 02:46:18;;;;;;;5.20;3.20;;;;;;;1.30;38.03;102541.97;5040082;28;20048;-76
2023/02/28 02:48:47;;;;;;;5.85;3.40;;;;;;;1.28;37.56;102543.81;5051604;28;20060;-76
2023/02/28 02:51:19;;;;;;;6.38;3.20;;;;;;;1.30;37.84;102540.19;5052536;28;20103;-76
2023/02/28 02:53:51;;;;;;;6.00;3.20;;;;;;;1.28;37.92;102543.81;5019503;28;20041;-76
2023/02/28 02:56:24;;;;;;;6.97;3.58;;;;;;;1.29;38.00;102542.91;5063149;28;20040;-76
2023/02/28 02:58:55;;;;;;;4.97;3.10;;;;;;;1.26;37.82;102541.16;5053521;28;20103;-76
2023/02/28 03:01:28;;;;;;;4.50;3.30;;;;;;;1.27;37.99;102542.03;5047321;28;20041;-76
2023/02/28 03:03:59;;;;;;;6.30;3.40;;;;;;;1.26;37.63;102540.28;5049291;28;20041;-76
2023/02/28 03:06:28;;;;;;;8.00;4.00;;;;;;;1.24;37.80;102547.53;5046522;28;20385;-76
2023/02/28 03:08:56;;;;;;;6.63;3.40;;;;;;;1.22;37.74;102554.75;5034762;28;20048;-78
2023/02/28 03:11:24;;;;;;;6.40;3.60;;;;;;;1.19;37.69;102546.72;5038508;28;20045;-76
2023/02/28 03:14:26;;;;;;;5.97;3.72;;;;;;;1.17;38.36;102553.97;5047226;28;20055;-76
2023/02/28 03:17:10;;;;;;;5.85;3.72;;;;;;;1.14;38.27;102546.81;5048393;28;20500;-76
2023/02/28 03:19:55;;;;;;;6.30;3.63;;;;;;;1.15;38.34;102542.31;4991143;28;20052;-76
2023/02/28 03:22:49;;;;;;;5.53;3.50;;;;;;;1.13;38.52;102549.53;5044999;28;20037;-76
2023/02/28 03:25:23;;;;;;;6.13;3.33;;;;;;;1.10;38.34;102545.09;5058092;28;20502;-77
2023/02/28 03:28:01;;;;;;;5.95;3.40;;;;;;;1.10;38.43;102554.06;5045472;28;20048;-75
2023/02/28 03:30:34;;;;;;;6.80;3.90;;;;;;;1.06;38.12;102552.38;5050509;28;20433;-77
2023/02/28 03:33:09;;;;;;;6.78;3.80;;;;;;;1.06;38.17;102540.72;5037793;28;20400;-77
2023/02/28 03:35:41;;;;;;;6.13;3.90;;;;;;;1.02;38.25;102536.28;5053826;28;20041;-77
2023/02/28 03:38:15;;;;;;;6.03;3.85;;;;;;;0.99;38.26;102539.97;5055158;28;20041;-77
2023/02/28 03:40:48;;;;;;;5.78;3.83;;;;;;;0.95;38.52;102538.22;5055921;28;20053;-77
2023/02/28 03:43:23;;;;;;;5.70;3.50;;;;;;;0.93;38.21;102536.50;5039667;28;20041;-77
2023/02/28 03:45:52;;;;;;;6.72;3.80;;;;;;;0.88;38.12;102541.97;5046981;28;20045;-78
2023/02/28 03:48:24;;;;;;;5.57;3.25;;;;;;;0.85;38.63;102543.84;5052193;28;20094;-77
2023/02/28 03:50:56;;;;;;;5.97;3.58;;;;;;;0.84;38.54;102547.44;5041941;28;20127;-78
2023/02/28 03:53:29;;;;;;;6.53;4.10;;;;;;;0.79;38.61;102547.50;5068569;28;20115;-78
2023/02/28 03:56:01;;;;;;;6.78;3.63;;;;;;;0.76;38.33;102546.72;5067070;28;20415;-78
2023/02/28 03:58:37;;;;;;;5.63;3.70;;;;;;;0.74;38.42;102555.72;5066207;28;20028;-77
2023/02/28 04:01:10;;;;;;;5.88;3.42;;;;;;;0.72;38.67;102553.94;5060036;28;20108;-78
2023/02/28 04:03:39;;;;;;;6.30;3.80;;;;;;;0.69;38.35;102560.28;5053752;28;20049;-78
2023/02/28 04:06:09;;;;;;;7.03;3.80;;;;;;;0.67;38.50;102555.84;5058191;28;20042;-77
2023/02/28 04:08:38;;;;;;;5.97;3.53;;;;;;;0.68;38.30;102555.81;5038105;28;20045;-78
2023/02/28 04:11:13;;;;;;;6.82;3.70;;;;;;;0.64;38.50;102559.50;5054869;28;20037;-78
2023/02/28 04:13:41;;;;;;;5.88;3.30;;;;;;;0.61;38.25;102561.34;5041732;28;20076;-78
2023/02/28 04:16:11;;;;;;;5.90;3.10;;;;;;;0.63;38.23;102564.91;5046102;28;20492;-78
2023/02/28 04:18:48;;;;;;;5.60;3.45;;;;;;;0.60;38.34;102560.44;5043607;28;20036;-78
2023/02/28 04:21:20;;;;;;;5.57;3.30;;;;;;;0.58;38.18;102565.00;5057830;28;20082;-78
2023/02/28 04:23:49;;;;;;;4.40;3.33;;;;;;;0.58;38.23;102562.31;5049535;28;20076;-78
2023/02/28 04:26:17;;;;;;;5.80;3.67;;;;;;;0.56;38.42;102563.25;5043272;28;20049;-78
2023/02/28 04:28:45;;;;;;;6.05;3.25;;;;;;;0.58;38.52;102567.69;5040166;28;20049;-78
2023/02/28 04:31:12;;;;;;;4.95;3.20;;;;;;;0.57;38.27;102568.63;5050996;28;20100;-78
2023/02/28 04:33:40;;;;;;;5.93;3.30;;;;;;;0.55;38.43;102570.44;5081086;28;20084;-78
2023/02/28 04:36:09;;;;;;;4.78;3.03;;;;;;;0.56;38.34;102571.34;5052467;28;20044;-77
2023/02/28 04:38:39;;;;;;;5.05;3.40;;;;;;;0.53;38.32;102569.56;5034889;28;20037;-77
2023/02/28 04:41:08;;;;;;;4.60;3.20;;;;;;;0.52;38.31;102575.00;5048298;28;20041;-78
2023/02/28 04:43:36;;;;;;;5.85;3.20;;;;;;;0.49;38.53;102567.88;5063094;28;20068;-78
2023/02/28 04:46:05;;;;;;;4.38;2.95;;;;;;;0.49;38.55;102573.25;5058171;28;20045;-78
2023/02/28 04:48:35;;;;;;;5.93;3.10;;;;;;;0.47;38.39;102574.19;5046766;28;20137;-78
2023/02/28 04:51:04;;;;;;;6.93;3.47;;;;;;;0.47;38.39;102576.88;5053396;28;20045;-77
2023/02/28 04:53:32;;;;;;;5.60;3.10;;;;;;;0.44;38.52;102575.13;5054740;28;20041;-77
2023/02/28 04:56:00;;;;;;;5.63;3.40;;;;;;;0.43;38.23;102581.47;5057672;28;20493;-78
2023/02/28 04:58:29;;;;;;;5.60;3.00;;;;;;;0.43;38.30;102573.38;5045114;28;20136;-78
2023/02/28 05:01:03;;;;;;;5.70;3.33;;;;;;;0.41;38.77;102580.59;5069336;28;20459;-78
2023/02/28 05:03:31;;;;;;;5.22;3.17;;;;;;;0.39;38.39;102577.03;5053329;28;20182;-78
2023/02/28 05:05:58;;;;;;;5.43;3.55;;;;;;;0.39;38.31;102581.53;5049848;28;20110;-78
2023/02/28 05:08:29;;;;;;;5.00;3.15;;;;;;;0.38;38.50;102582.44;5031433;28;20060;-78
2023/02/28 05:10:57;;;;;;;4.75;3.05;;;;;;;0.36;38.36;102580.66;5052589;28;20052;-77
2023/02/28 05:13:25;;;;;;;5.07;3.08;;;;;;;0.36;38.56;102585.16;5049418;28;20052;-77
2023/02/28 05:15:54;;;;;;;6.18;3.33;;;;;;;0.35;38.10;102578.88;5041537;28;20041;-77
2023/02/28 05:18:22;;;;;;;5.40;3.45;;;;;;;0.33;38.16;102578.03;5053483;28;20040;-77
2023/02/28 05:20:50;;;;;;;4.97;3.20;;;;;;;0.35;38.15;102584.25;5043251;28;20049;-78
2023/02/28 05:23:20;;;;;;;6.32;3.33;;;;;;;0.35;38.25;102586.94;5048451;28;20451;-78
2023/02/28 05:25:48;;;;;;;4.05;2.65;;;;;;;0.33;38.16;102583.41;5037327;28;20099;-77
2023/02/28 05:28:16;;;;;;;7.30;3.00;;;;;;;0.33;38.25;102575.34;5045997;28;20111;-77
2023/02/28 05:30:44;;;;;;;4.45;2.80;;;;;;;0.32;38.07;102581.63;5050304;28;20051;-77
2023/02/28 05:33:13;;;;;;;4.15;2.88;;;;;;;0.33;38.22;102580.72;5050656;28;20056;-77
2023/02/28 05:35:42;;;;;;;4.38;3.20;;;;;;;0.30;38.11;102577.19;5032378;28;20047;-77
2023/02/28 05:38:10;;;;;;;4.60;2.97;;;;;;;0.31;38.15;102585.25;5051029;28;20033;-78
2023/02/28 05:40:39;;;;;;;5.05;3.30;;;;;;;0.30;38.22;102586.16;5038137;28;20078;-78
2023/02/28 05:43:11;;;;;;;5.18;3.38;;;;;;;0.30;38.26;102596.03;5033925;28;20681;-77
2023/02/28 05:45:39;;;;;;;5.38;3.05;;;;;;;0.26;38.22;102595.22;5058095;28;20045;-78
2023/02/28 05:48:07;;;;;;;5.32;2.92;;;;;;;0.27;38.21;102586.19;5049478;28;20044;-77
2023/02/28 05:50:36;;;;;;;5.95;2.90;;;;;;;0.25;37.90;102592.53;5050211;28;20044;-78
2023/02/28 05:53:04;;;;;;;5.30;3.22;;;;;;;0.21;37.87;102590.81;5034932;28;20085;-77
2023/02/28 05:55:32;;;;;;;6.25;3.40;;;;;;;0.21;37.83;102601.56;5035874;28;20118;-78
2023/02/28 05:58:00;;;;;;;5.10;3.13;;;;;;;0.19;37.99;102598.03;5044958;28;20063;-77
2023/02/28 06:00:28;;;;;;;4.55;3.08;;;;;;;0.15;38.09;102599.88;4988272;28;1193599;-77
2023/02/28 06:02:57;;;;;;;6.75;3.65;;;;;;;0.15;37.96;102596.31;5052706;28;20084;-77
2023/02/28 06:05:25;;;;;;;5.60;3.38;;;;;;;0.14;37.91;102605.28;5053750;28;20037;-77
2023/02/28 06:07:54;;;;;;;7.35;3.50;;;;;;;0.11;37.79;102600.84;5033313;28;20048;-77
2023/02/28 06:10:22;;;;;;;6.45;3.70;;;;;;;0.07;37.62;102606.31;5035111;28;20051;-78
2023/02/28 06:12:50;;;;;;;5.47;3.50;;;;;;;0.09;37.70;102607.19;5050687;28;20045;-77
2023/02/28 06:15:18;;;;;;;6.03;3.42;;;;;;;0.05;38.15;102609.00;5055643;28;20440;-77
2023/02/28 06:17:46;;;;;;;4.70;3.05;;;;;;;0.06;38.04;102617.97;5049220;28;20043;-77
2023/02/28 06:20:14;;;;;;;5.63;3.20;;;;;;;0.04;38.15;102615.31;5035308;28;20163;-77
2023/02/28 06:22:42;;;;;;;5.30;3.15;;;;;;;0.02;37.76;102613.56;5054072;28;20511;-77
2023/02/28 06:25:12;;;;;;;5.78;3.53;;;;;;;0.00;37.91;102616.28;5041876;28;20111;-77
2023/02/28 06:27:39;;;;;;;4.95;3.00;;;;;;;0.00;37.67;102616.28;5041680;28;20052;-77
2023/02/28 06:30:08;;;;;;;7.03;4.05;;;;;;;-0.05;38.05;102621.72;5038041;28;20122;-77
2023/02/28 06:32:36;;;;;;;5.38;3.83;;;;;;;-0.08;37.82;102621.78;5048415;28;20048;-77
2023/02/28 06:35:05;;;;;;;6.20;3.38;;;;;;;-0.07;37.88;102625.38;5047171;28;20539;-77
2023/02/28 06:37:33;;;;;;;6.18;3.50;;;;;;;-0.11;37.78;102627.22;5031364;28;20507;-77
2023/02/28 06:40:01;;;;;;;5.90;3.65;;;;;;;-0.15;37.36;102627.28;5041267;28;20045;-77
2023/02/28 06:42:30;;;;;;;5.88;3.38;;;;;;;-0.14;37.77;102634.44;5042088;28;20099;-77
2023/02/28 06:44:59;;;;;;;4.70;3.30;;;;;;;-0.15;37.44;102632.69;5053698;28;20052;-77
2023/02/28 06:47:26;;;;;;;5.15;3.20;;;;;;;-0.18;37.81;102625.53;5049639;28;20041;-77
2023/02/28 06:49:54;;;;;;;5.00;3.10;;;;;;;-0.16;37.69;102633.59;5053926;28;20055;-77
2023/02/28 06:52:22;;;;;;;5.35;3.65;;;;;;;-0.16;38.03;102641.66;5052868;28;20048;-77
2023/02/28 06:54:59;;;;;;;6.30;3.60;;;;;;;-0.19;38.05;102644.38;5039694;28;20080;-77
2023/02/28 06:57:31;;;;;;;6.25;3.25;;;;;;;-0.14;38.38;102647.88;5031644;28;20055;-77
2023/02/28 06:59:59;;;;;;;6.40;3.40;;;;;;;-0.07;38.97;102645.09;5064049;28;20048;-77
2023/02/28 07:02:27;;;;;;;6.47;3.50;;;;;;;0.01;38.88;102646.78;5053173;28;20041;-77
2023/02/28 07:04:55;;;;;;;6.00;2.95;;;;;;;0.15;39.32;102653.72;5042371;28;20061;-77
2023/02/28 07:07:23;;;;;;;5.15;3.38;;;;;;;0.28;39.40;102652.59;5036989;28;20131;-77
2023/02/28 07:09:51;;;;;;;4.25;3.20;;;;;;;0.46;39.75;102659.50;5048781;28;20417;-77
2023/02/28 07:12:19;;;;;;;4.97;3.17;;;;;;;0.64;39.54;102651.09;5048016;28;20064;-77
2023/02/28 07:14:48;;;;;;;4.63;3.20;;;;;;;0.84;39.19;102650.75;5051823;28;20049;-77
2023/02/28 07:17:17;;;;;;;5.70;3.40;;;;;;;1.01;39.00;102658.56;5041676;28;20115;-77
2023/02/28 07:19:44;;;;;;;5.22;3.30;;;;;;;1.19;38.93;102649.19;5042100;28;20041;-77
2023/02/28 07:22:12;;;;;;;5.00;3.30;;;;;;;1.38;38.69;102656.00;5070771;28;20036;-77
2023/02/28 07:24:42;;;;;;;5.47;3.63;;;;;;;1.56;38.25;102655.63;5058259;28;20048;-77
2023/02/28 07:27:10;;;;;;;5.35;3.40;;;;;;;1.73;37.98;102653.44;5062825;28;20532;-77
2023/02/28 07:29:38;;;;;;;5.28;3.50;;;;;;;1.91;37.73;102656.66;5049294;28;20128;-77
2023/02/28 07:32:07;;;;;;;5.50;3.70;;;;;;;2.08;37.23;102651.75;5046716;28;20159;-77
2023/02/28 07:34:35;;;;;;;5.30;3.25;;;;;;;2.14;36.89;102659.69;5052489;28;20041;-76
2023/02/28 07:37:04;;;;;;;5.05;3.60;;;;;;;2.31;36.99;102659.28;5052964;28;20037;-77
2023/02/28 07:39:32;;;;;;;4.93;3.65;;;;;;;2.44;36.62;102650.84;5038146;28;20171;-77
2023/02/28 07:42:03;;;;;;;5.15;2.92;;;;;;;2.60;36.48;102665.72;5034039;28;20404;-77
2023/02/28 07:44:32;;;;;;;4.82;3.30;;;;;;;2.74;36.38;102664.50;5037863;28;20041;-77
2023/02/28 07:47:00;;;;;;;5.03;3.28;;;;;;;2.86;36.18;102664.16;5057815;28;20427;-77
2023/02/28 07:49:29;;;;;;;4.60;3.17;;;;;;;3.01;35.47;102667.34;5051866;28;20405;-77
2023/02/28 07:51:57;;;;;;;4.40;2.95;;;;;;;3.16;36.15;102660.59;5071986;28;20495;-77
2023/02/28 07:54:25;;;;;;;4.22;3.20;;;;;;;3.29;36.05;102669.28;5051676;28;20041;-77
2023/02/28 07:56:53;;;;;;;4.25;2.70;;;;;;;3.40;35.33;102667.16;5050246;28;20146;-77
2023/02/28 07:59:21;;;;;;;5.60;3.20;;;;;;;3.51;34.75;102666.88;5022236;28;20053;-78
2023/02/28 08:01:50;;;;;;;5.82;2.83;;;;;;;3.65;34.73;102681.75;5059485;28;20412;-76
2023/02/28 08:04:18;;;;;;;5.70;2.92;;;;;;;3.78;34.58;102676.88;5050195;28;20055;-76
2023/02/28 08:06:47;;;;;;;4.57;2.97;;;;;;;3.84;33.75;102673.09;5045796;28;20107;-76
2023/02/28 08:09:15;;;;;;;3.97;2.78;;;;;;;3.86;33.49;102669.41;5046798;28;20546;-77
2023/02/28 08:11:43;;;;;;;4.20;2.70;;;;;;;3.94;33.38;102675.47;5039989;28;20045;-76
2023/02/28 08:14:11;;;;;;;4.45;2.55;;;;;;;3.98;33.46;102670.84;5035128;28;20077;-76
2023/02/28 08:16:39;;;;;;;4.93;3.08;;;;;;;3.94;32.87;102661.94;5050433;28;20041;-76
2023/02/28 08:19:07;;;;;;;5.65;2.63;;;;;;;3.97;32.89;102669.97;5049873;28;20033;-76
2023/02/28 08:21:34;;;;;;;4.30;2.75;;;;;;;3.98;32.64;102670.84;5032518;28;20538;-76
2023/02/28 08:24:04;;;;;;;3.72;2.42;;;;;;;3.97;32.45;102669.97;5059182;28;20475;-77
2023/02/28 08:26:31;;;;;;;4.15;2.38;;;;;;;3.97;32.74;102674.50;5060716;28;20056;-76
2023/02/28 08:28:59;;;;;;;4.53;2.53;;;;;;;3.95;32.79;102670.94;5045078;28;20036;-76
2023/02/28 08:31:28;;;;;;;4.28;2.58;;;;;;;3.88;32.33;102682.91;5043643;28;20038;-76
2023/02/28 08:33:58;;;;;;;5.13;2.90;;;;;;;3.85;32.05;102672.16;5049165;28;20056;-75
2023/02/28 08:36:28;;;;;;;3.17;2.30;;;;;;;3.86;32.18;102677.53;5047055;28;20057;-76
2023/02/28 08:38:57;;;;;;;3.42;2.67;;;;;;;3.82;32.06;102672.25;5030998;28;20475;-76
2023/02/28 08:41:27;;;;;;;4.68;2.30;;;;;;;3.76;31.45;102678.75;5051312;28;20045;-75
2023/02/28 08:43:55;;;;;;;5.07;2.42;;;;;;;3.73;32.02;102678.81;5039409;28;20041;-76
2023/02/28 08:46:24;;;;;;;4.28;2.40;;;;;;;3.73;32.04;102674.28;5052530;28;20099;-75
2023/02/28 08:48:53;;;;;;;4.90;2.33;;;;;;;3.69;31.88;102679.88;5065719;28;20079;-75
2023/02/28 08:51:26;;;;;;;3.30;2.20;;;;;;;3.70;32.12;102676.22;5045510;28;20044;-76
2023/02/28 08:53:55;;;;;;;4.15;2.42;;;;;;;3.68;31.96;102669.97;5045981;28;20116;-75
2023/02/28 08:56:23;;;;;;;3.15;2.17;;;;;;;3.68;31.82;102676.28;5061100;28;20045;-75
2023/02/28 08:58:55;;;;;;;4.38;2.38;;;;;;;3.70;31.67;102671.69;5050983;28;21468;-75
2023/02/28 09:01:24;;;;;;;3.53;2.22;;;;;;;3.68;31.60;102675.38;5059801;28;20037;-75
2023/02/28 09:03:52;;;;;;;3.15;2.05;;;;;;;3.69;31.79;102675.34;5046008;28;20056;-75
2023/02/28 09:06:23;;;;;;;3.30;2.20;;;;;;;3.60;30.36;102674.72;5041207;28;20120;-76
2023/02/28 09:08:51;;;;;;;3.33;1.88;;;;;;;3.68;31.47;102667.25;5049126;28;20299;-75
2023/02/28 09:11:19;;;;;;;3.10;2.00;;;;;;;3.70;30.97;102677.13;5046062;28;20448;-75
2023/02/28 09:13:47;;;;;;;3.80;2.03;;;;;;;3.72;31.36;102669.84;5048456;28;20424;-76
2023/02/28 09:16:17;;;;;;;3.08;1.83;;;;;;;3.73;30.88;102665.28;5040393;28;20089;-76
2023/02/28 09:18:46;;;;;;;3.20;2.13;;;;;;;3.73;31.17;102654.44;5048902;28;20441;-76
2023/02/28 09:21:16;;;;;;;3.10;2.13;;;;;;;3.71;30.72;102659.06;5043360;28;20037;-77
2023/02/28 09:23:45;;;;;;;3.17;2.00;;;;;;;3.69;30.40;102650.97;5040019;28;20049;-76
2023/02/28 09:26:15;;;;;;;3.22;1.85;;;;;;;3.73;30.12;102643.63;5043402;28;20510;-76
2023/02/28 09:28:43;;;;;;;3.80;1.90;;;;;;;3.75;30.81;102652.59;5055003;28;20045;-76
2023/02/28 09:31:15;;;;;;;3.05;1.98;;;;;;;3.83;29.68;102657.78;5052260;28;20037;-76
2023/02/28 09:33:45;;;;;;;3.05;1.92;;;;;;;3.71;29.92;102650.94;5041606;28;20143;-77
2023/02/28 09:36:12;;;;;;;2.92;1.88;;;;;;;3.80;30.20;102650.66;5025287;28;20045;-76
2023/02/28 09:38:40;;;;;;;3.53;2.08;;;;;;;3.86;30.28;102661.28;5034839;28;20076;-76
2023/02/28 09:41:14;;;;;;;3.05;1.90;;;;;;;3.94;29.36;102648.38;5031757;28;20060;-76
2023/02/28 09:43:47;;;;;;;4.18;2.10;;;;;;;3.85;29.40;102647.78;5044118;28;20048;-76
2023/02/28 09:46:26;;;;;;;3.58;1.90;;;;;;;3.99;29.25;102651.81;5042685;28;20587;-76
2023/02/28 09:48:58;;;;;;;3.63;1.95;;;;;;;4.04;30.29;102651.69;5047619;28;20452;-76
2023/02/28 09:51:38;;;;;;;3.72;2.22;;;;;;;4.11;28.75;102651.44;5049388;28;20063;-77
2023/02/28 09:54:06;;;;;;;3.08;1.80;;;;;;;4.11;30.27;102640.63;5038739;28;20451;-77
2023/02/28 09:56:39;;;;;;;2.40;1.80;;;;;;;4.16;29.40;102645.88;5043859;28;20041;-77
2023/02/28 09:59:17;;;;;;;2.90;1.83;;;;;;;4.21;29.07;102645.75;5032178;28;20100;-77
2023/02/28 10:01:53;;;;;;;3.03;1.70;;;;;;;4.23;29.72;102639.31;5047404;28;20163;-77
2023/02/28 10:04:37;;;;;;;3.28;1.60;;;;;;;4.31;29.16;102663.44;5042221;28;20416;-76
2023/02/28 10:07:17;;;;;;;2.92;1.70;;;;;;;4.36;29.69;102647.94;5034882;28;20044;-76
2023/02/28 10:09:48;;;;;;;2.95;1.70;;;;;;;4.41;30.06;102664.94;5047216;28;20052;-76
2023/02/28 10:12:17;;;;;;;3.63;1.58;;;;;;;4.47;29.78;102641.19;5029652;28;20237;-76
2023/02/28 10:14:48;;;;;;;2.42;1.60;;;;;;;4.51;29.52;102655.56;5052276;28;20049;-77
2023/02/28 10:17:20;;;;;;;3.30;1.55;;;;;;;4.53;29.20;102651.88;5042442;28;20040;-76
2023/02/28 10:20:00;;;;;;;3.58;1.88;;;;;;;4.53;28.49;102650.97;5031887;28;20168;-77
2023/02/28 10:22:34;;;;;;;2.28;1.40;;;;;;;4.54;28.71;102647.31;5029946;28;20408;-76
2023/02/28 10:25:06;;;;;;;3.05;1.63;;;;;;;4.50;29.00;102649.25;5028256;28;20452;-76
2023/02/28 10:27:35;;;;;;;2.78;1.70;;;;;;;4.48;29.03;102650.22;5049630;28;20044;-76
2023/02/28 10:30:03;;;;;;;2.88;1.50;;;;;;;4.48;28.77;102645.69;5048544;28;20558;-76
2023/02/28 10:32:34;;;;;;;4.28;1.85;;;;;;;4.47;28.74;102637.63;5035092;28;20526;-76
2023/02/28 10:35:15;;;;;;;2.28;1.48;;;;;;;4.50;27.87;102642.94;5051894;28;20053;-76
2023/02/28 10:37:45;;;;;;;3.05;1.60;;;;;;;4.48;29.08;102647.50;5036457;28;20493;-76
2023/02/28 10:40:30;;;;;;;2.80;1.60;;;;;;;4.50;27.81;102638.41;5049395;28;20041;-76
2023/02/28 10:43:00;;;;;;;3.00;1.70;;;;;;;4.49;28.73;102643.88;5044743;28;20076;-76
2023/02/28 10:45:31;;;;;;;2.35;1.65;;;;;;;4.50;28.86;102634.78;5049595;28;20037;-76
2023/02/28 10:48:02;;;;;;;3.17;1.80;;;;;;;4.50;28.73;102635.69;5047291;28;20120;-76
2023/02/28 10:50:37;;;;;;;2.08;1.40;;;;;;;4.54;28.10;102639.19;5059439;28;20099;-76
2023/02/28 10:53:24;;;;;;;2.88;1.58;;;;;;;4.53;27.52;102632.88;5049393;28;20080;-76
2023/02/28 10:55:58;;;;;;;2.95;1.73;;;;;;;4.55;28.00;102628.25;5037528;28;20037;-75
2023/02/28 10:58:28;;;;;;;3.53;1.67;;;;;;;4.58;29.19;102629.09;5052511;28;20072;-76
2023/02/28 11:00:56;;;;;;;3.17;1.60;;;;;;;4.62;29.15;102628.09;5049668;28;20045;-75
2023/02/28 11:03:32;;;;;;;2.33;1.60;;;;;;;4.64;29.02;102620.75;5055678;28;20500;-76
2023/02/28 11:06:08;;;;;;;3.00;1.60;;;;;;;4.68;28.14;102615.19;5030387;28;20529;-76
2023/02/28 11:08:46;;;;;;;2.88;1.95;;;;;;;4.70;28.00;102615.13;5051454;28;20045;-76
2023/02/28 11:11:14;;;;;;;3.03;1.80;;;;;;;4.69;28.87;102616.97;5042958;28;20036;-76
2023/02/28 11:13:42;;;;;;;4.20;1.70;;;;;;;4.73;28.78;102623.16;5042220;28;20056;-76
2023/02/28 11:16:12;;;;;;;3.30;2.05;;;;;;;4.73;28.92;102624.03;5036297;28;20046;-76
2023/02/28 11:18:44;;;;;;;2.92;1.70;;;;;;;4.74;28.36;102616.78;5035575;28;20045;-76
2023/02/28 11:21:22;;;;;;;3.95;1.90;;;;;;;4.76;27.88;102614.91;5053662;28;20120;-76
2023/02/28 11:23:53;;;;;;;2.08;1.60;;;;;;;4.75;28.59;102613.13;5040312;28;20485;-76
2023/02/28 11:26:41;;;;;;;3.03;1.80;;;;;;;4.76;27.88;102617.63;5054993;28;20040;-76
2023/02/28 11:29:20;;;;;;;2.83;1.80;;;;;;;4.75;27.80;102613.13;5034512;28;20090;-76
2023/02/28 11:32:05;;;;;;;2.35;1.70;;;;;;;4.76;27.59;102620.34;5048544;28;20329;-76
2023/02/28 11:34:33;;;;;;;3.35;1.70;;;;;;;4.74;28.53;102624.94;5048651;28;20072;-75
2023/02/28 11:37:04;;;;;;;3.10;1.80;;;;;;;4.76;28.41;102623.94;5034540;28;20041;-76
2023/02/28 11:39:33;;;;;;;2.88;1.67;;;;;;;4.77;28.59;102623.00;5041184;28;20041;-75
2023/02/28 11:42:32;;;;;;;3.67;2.15;;;;;;;4.75;27.49;102629.41;5049576;28;20091;-76
2023/02/28 11:45:17;;;;;;;2.92;1.88;;;;;;;4.75;27.70;102630.28;5031956;28;20037;-76
2023/02/28 11:47:49;;;;;;;2.95;1.63;;;;;;;4.73;27.92;102625.84;5048259;28;20084;-76
2023/02/28 11:50:27;;;;;;;3.67;2.03;;;;;;;4.65;27.20;102612.56;5059683;28;20095;-76
2023/02/28 11:53:01;;;;;;;3.55;1.98;;;;;;;4.63;27.79;102624.44;5053178;28;20037;-76